IBS18KF LEMD-GMMX
Flight info
| Callsign | IBS18KF |
|---|---|
| Flight time | 1h 50m |
| Altitude | 37000 |
| Route | VTB N10 SVL N857 KORNO UN857 ABODA UR722 MABAP |
| Aircraft | A320/M-SDE3FGHIRWY/LB1 |
Departure
| Time | 2026-05-05 14:18 |
|---|---|
| Airport | Adolfo Suárez Madrid–Barajas Airport (LEMD) |
Arrival
| Time | 2026-05-05 16:08 |
|---|---|
| Airport | Marrakesh Menara Airport (GMMX) |
| Time | Latitude | Longitude | Altitude | Speed | Heading |
|---|---|---|---|---|---|
| 2026-05-05 14:06 | 40.49189 | -3.58964 | 2022 ft | 0 kts | 271° |
| 2026-05-05 14:08 | 40.49189 | -3.58955 | 2022 ft | 4 kts | 272° |
| 2026-05-05 14:08 | 40.49185 | -3.58920 | 2026 ft | 4 kts | 287° |
| 2026-05-05 14:09 | 40.49174 | -3.58890 | 2033 ft | 4 kts | 321° |
| 2026-05-05 14:09 | 40.49159 | -3.58881 | 2033 ft | 0 kts | 359° |
| 2026-05-05 14:12 | 40.49173 | -3.58881 | 2032 ft | 3 kts | 359° |
| 2026-05-05 14:12 | 40.49192 | -3.58881 | 2022 ft | 4 kts | 360° |
| 2026-05-05 14:12 | 40.49235 | -3.58852 | 2026 ft | 10 kts | 65° |
| 2026-05-05 14:12 | 40.49240 | -3.58738 | 2027 ft | 15 kts | 89° |
| 2026-05-05 14:13 | 40.49240 | -3.58575 | 2027 ft | 21 kts | 90° |
| 2026-05-05 14:13 | 40.49241 | -3.58347 | 2011 ft | 29 kts | 89° |
| 2026-05-05 14:13 | 40.49243 | -3.58124 | 2004 ft | 19 kts | 89° |
| 2026-05-05 14:13 | 40.49243 | -3.57986 | 2001 ft | 10 kts | 90° |
| 2026-05-05 14:14 | 40.49243 | -3.57887 | 1997 ft | 12 kts | 90° |
| 2026-05-05 14:14 | 40.49244 | -3.57773 | 1993 ft | 12 kts | 90° |
| 2026-05-05 14:14 | 40.49244 | -3.57740 | 1991 ft | 2 kts | 90° |
| 2026-05-05 14:14 | 40.49244 | -3.57674 | 1989 ft | 11 kts | 89° |
| 2026-05-05 14:15 | 40.49256 | -3.57591 | 1987 ft | 3 kts | 70° |
| 2026-05-05 14:15 | 40.49261 | -3.57577 | 1986 ft | 0 kts | 62° |
| 2026-05-05 14:15 | 40.49261 | -3.57576 | 1986 ft | 0 kts | 62° |
| 2026-05-05 14:16 | 40.49275 | -3.57544 | 1987 ft | 9 kts | 61° |
| 2026-05-05 14:16 | 40.49314 | -3.57455 | 1983 ft | 5 kts | 2° |
| 2026-05-05 14:17 | 40.49354 | -3.57452 | 1983 ft | 0 kts | 360° |
| 2026-05-05 14:17 | 40.49355 | -3.57452 | 1983 ft | 0 kts | 360° |
| 2026-05-05 14:17 | 40.49380 | -3.57452 | 1983 ft | 8 kts | 0° |
| 2026-05-05 14:17 | 40.49492 | -3.57453 | 1986 ft | 29 kts | 358° |
| 2026-05-05 14:18 | 40.49949 | -3.57462 | 1986 ft | 100 kts | 360° |
| 2026-05-05 14:18 | 40.50849 | -3.57465 | 1996 ft | 156 kts | 360° |
| 2026-05-05 14:18 | 40.52041 | -3.57485 | 2374 ft | 174 kts | 354° |
| 2026-05-05 14:18 | 40.53269 | -3.57482 | 3154 ft | 177 kts | 354° |
| 2026-05-05 14:19 | 40.54504 | -3.57477 | 3897 ft | 178 kts | 354° |
| 2026-05-05 14:19 | 40.55738 | -3.57481 | 4529 ft | 177 kts | 353° |
| 2026-05-05 14:19 | 40.56970 | -3.57491 | 5152 ft | 177 kts | 355° |
| 2026-05-05 14:19 | 40.58233 | -3.57504 | 5477 ft | 194 kts | 355° |
| 2026-05-05 14:20 | 40.59670 | -3.57483 | 5710 ft | 221 kts | 2° |
| 2026-05-05 14:20 | 40.61200 | -3.56813 | 6174 ft | 239 kts | 20° |
| 2026-05-05 14:20 | 40.62721 | -3.55880 | 6952 ft | 241 kts | 18° |
| 2026-05-05 14:20 | 40.64379 | -3.55504 | 7432 ft | 251 kts | 354° |
| 2026-05-05 14:21 | 40.66193 | -3.55614 | 7908 ft | 269 kts | 354° |
| 2026-05-05 14:21 | 40.68100 | -3.55697 | 8625 ft | 277 kts | 355° |
| 2026-05-05 14:21 | 40.70043 | -3.55745 | 9437 ft | 282 kts | 356° |
| 2026-05-05 14:21 | 40.72022 | -3.55769 | 10187 ft | 288 kts | 355° |
| 2026-05-05 14:22 | 40.74097 | -3.55909 | 10451 ft | 309 kts | 346° |
| 2026-05-05 14:22 | 40.76125 | -3.56989 | 10771 ft | 322 kts | 323° |
| 2026-05-05 14:22 | 40.77687 | -3.59050 | 11391 ft | 325 kts | 302° |
| 2026-05-05 14:22 | 40.78545 | -3.61793 | 12129 ft | 327 kts | 280° |
| 2026-05-05 14:23 | 40.78520 | -3.64797 | 12867 ft | 332 kts | 259° |
| 2026-05-05 14:23 | 40.78016 | -3.67788 | 13686 ft | 334 kts | 258° |
| 2026-05-05 14:23 | 40.77490 | -3.70786 | 14368 ft | 336 kts | 258° |
| 2026-05-05 14:23 | 40.76954 | -3.73805 | 15023 ft | 339 kts | 257° |
| 2026-05-05 14:24 | 40.76075 | -3.76704 | 15678 ft | 346 kts | 239° |
| 2026-05-05 14:24 | 40.74452 | -3.79067 | 16318 ft | 354 kts | 219° |
| 2026-05-05 14:24 | 40.72229 | -3.80530 | 16946 ft | 364 kts | 198° |
| 2026-05-05 14:24 | 40.69674 | -3.80788 | 17563 ft | 376 kts | 175° |
| 2026-05-05 14:25 | 40.67106 | -3.79957 | 18200 ft | 382 kts | 167° |
| 2026-05-05 14:25 | 40.64538 | -3.78975 | 18750 ft | 386 kts | 167° |
| 2026-05-05 14:25 | 40.61982 | -3.77841 | 19289 ft | 392 kts | 159° |
| 2026-05-05 14:25 | 40.59575 | -3.76098 | 19839 ft | 399 kts | 148° |
| 2026-05-05 14:26 | 40.57414 | -3.73751 | 20348 ft | 407 kts | 137° |
| 2026-05-05 14:26 | 40.55580 | -3.70877 | 20878 ft | 413 kts | 129° |
| 2026-05-05 14:26 | 40.53871 | -3.67887 | 21400 ft | 416 kts | 129° |
| 2026-05-05 14:26 | 40.52120 | -3.64827 | 21919 ft | 420 kts | 129° |
| 2026-05-05 14:27 | 40.50312 | -3.61795 | 22414 ft | 422 kts | 135° |
| 2026-05-05 14:27 | 40.48175 | -3.59164 | 22902 ft | 422 kts | 146° |
| 2026-05-05 14:27 | 40.45713 | -3.57085 | 23385 ft | 420 kts | 157° |
| 2026-05-05 14:27 | 40.43029 | -3.55631 | 23797 ft | 417 kts | 168° |
| 2026-05-05 14:28 | 40.40205 | -3.54827 | 24121 ft | 414 kts | 180° |
| 2026-05-05 14:28 | 40.37322 | -3.54440 | 24472 ft | 417 kts | 181° |
| 2026-05-05 14:28 | 40.34427 | -3.54057 | 24861 ft | 420 kts | 181° |
| 2026-05-05 14:28 | 40.31509 | -3.53663 | 25245 ft | 422 kts | 181° |
| 2026-05-05 14:29 | 40.28576 | -3.53261 | 25617 ft | 425 kts | 181° |
| 2026-05-05 14:29 | 40.25628 | -3.52855 | 25981 ft | 427 kts | 181° |
| 2026-05-05 14:29 | 40.22660 | -3.52447 | 26357 ft | 430 kts | 181° |
| 2026-05-05 14:29 | 40.19681 | -3.52037 | 26695 ft | 432 kts | 182° |
| 2026-05-05 14:30 | 40.16682 | -3.51627 | 27039 ft | 434 kts | 183° |
| 2026-05-05 14:30 | 40.13666 | -3.51220 | 27392 ft | 437 kts | 183° |
| 2026-05-05 14:30 | 40.10637 | -3.50812 | 27740 ft | 439 kts | 183° |
| 2026-05-05 14:30 | 40.07627 | -3.50405 | 28077 ft | 441 kts | 183° |
| 2026-05-05 14:31 | 40.04571 | -3.49992 | 28419 ft | 443 kts | 183° |
| 2026-05-05 14:31 | 40.01497 | -3.49577 | 28755 ft | 445 kts | 183° |
| 2026-05-05 14:31 | 39.98401 | -3.49157 | 29069 ft | 447 kts | 183° |
| 2026-05-05 14:31 | 39.95301 | -3.48733 | 29347 ft | 448 kts | 185° |
| 2026-05-05 14:32 | 39.92202 | -3.48308 | 29705 ft | 448 kts | 185° |
| 2026-05-05 14:32 | 39.89094 | -3.47887 | 30019 ft | 450 kts | 185° |
| 2026-05-05 14:32 | 39.85974 | -3.47467 | 30264 ft | 451 kts | 185° |
| 2026-05-05 14:32 | 39.82840 | -3.47047 | 30509 ft | 453 kts | 185° |
| 2026-05-05 14:33 | 39.79697 | -3.46627 | 30720 ft | 455 kts | 185° |
| 2026-05-05 14:33 | 39.76593 | -3.46353 | 30931 ft | 445 kts | 193° |
| 2026-05-05 14:33 | 39.73620 | -3.47011 | 31119 ft | 423 kts | 208° |
| 2026-05-05 14:33 | 39.71034 | -3.48608 | 31434 ft | 403 kts | 223° |
| 2026-05-05 14:34 | 39.68941 | -3.50908 | 31724 ft | 388 kts | 235° |
| 2026-05-05 14:34 | 39.67401 | -3.53724 | 31991 ft | 378 kts | 247° |
| 2026-05-05 14:34 | 39.66458 | -3.56878 | 32257 ft | 372 kts | 259° |
| 2026-05-05 14:34 | 39.65842 | -3.60144 | 32518 ft | 374 kts | 255° |
| 2026-05-05 14:35 | 39.64795 | -3.63210 | 32782 ft | 379 kts | 244° |
| 2026-05-05 14:35 | 39.63193 | -3.65978 | 33043 ft | 388 kts | 233° |
| 2026-05-05 14:35 | 39.61289 | -3.68496 | 33320 ft | 390 kts | 232° |
| 2026-05-05 14:35 | 39.59373 | -3.71002 | 33603 ft | 390 kts | 232° |
| 2026-05-05 14:36 | 39.57460 | -3.73501 | 33886 ft | 390 kts | 232° |
| 2026-05-05 14:36 | 39.55573 | -3.75964 | 34124 ft | 390 kts | 232° |
| 2026-05-05 14:36 | 39.53656 | -3.78467 | 34344 ft | 391 kts | 232° |
| 2026-05-05 14:36 | 39.51746 | -3.80961 | 34569 ft | 391 kts | 232° |
| 2026-05-05 14:37 | 39.49825 | -3.83469 | 34783 ft | 389 kts | 231° |
| 2026-05-05 14:37 | 39.47918 | -3.85962 | 35003 ft | 389 kts | 231° |
| 2026-05-05 14:37 | 39.46030 | -3.88432 | 35183 ft | 390 kts | 231° |
| 2026-05-05 14:37 | 39.44116 | -3.90928 | 35378 ft | 390 kts | 231° |
| 2026-05-05 14:38 | 39.42198 | -3.93423 | 35562 ft | 391 kts | 231° |
| 2026-05-05 14:38 | 39.40279 | -3.95918 | 35742 ft | 391 kts | 231° |
| 2026-05-05 14:38 | 39.38348 | -3.98427 | 35930 ft | 392 kts | 231° |
| 2026-05-05 14:38 | 39.36422 | -4.00923 | 36118 ft | 392 kts | 231° |
| 2026-05-05 14:39 | 39.34489 | -4.03427 | 36281 ft | 393 kts | 231° |
| 2026-05-05 14:39 | 39.32582 | -4.05898 | 36444 ft | 393 kts | 230° |
| 2026-05-05 14:39 | 39.30648 | -4.08401 | 36614 ft | 393 kts | 230° |
| 2026-05-05 14:39 | 39.28709 | -4.10909 | 36783 ft | 394 kts | 230° |
| 2026-05-05 14:40 | 39.26762 | -4.13423 | 36922 ft | 394 kts | 230° |
| 2026-05-05 14:40 | 39.24819 | -4.15933 | 36968 ft | 393 kts | 230° |
| 2026-05-05 14:40 | 39.20972 | -4.20892 | 36964 ft | 392 kts | 230° |
| 2026-05-05 14:41 | 39.17107 | -4.25869 | 36966 ft | 392 kts | 230° |
| 2026-05-05 14:41 | 39.13237 | -4.30842 | 36974 ft | 392 kts | 230° |
| 2026-05-05 14:42 | 39.09401 | -4.35772 | 36974 ft | 392 kts | 230° |
| 2026-05-05 14:42 | 39.05533 | -4.40733 | 36975 ft | 392 kts | 230° |
| 2026-05-05 14:43 | 39.01662 | -4.45690 | 36955 ft | 391 kts | 230° |
| 2026-05-05 14:43 | 38.97790 | -4.50627 | 36982 ft | 391 kts | 230° |
| 2026-05-05 14:44 | 38.93946 | -4.55520 | 36990 ft | 391 kts | 230° |
| 2026-05-05 14:44 | 38.90084 | -4.60438 | 36987 ft | 391 kts | 230° |
| 2026-05-05 14:45 | 38.86215 | -4.65354 | 36991 ft | 391 kts | 230° |
| 2026-05-05 14:45 | 38.82351 | -4.70254 | 36993 ft | 391 kts | 230° |
| 2026-05-05 14:46 | 38.78511 | -4.75117 | 36966 ft | 390 kts | 230° |
| 2026-05-05 14:46 | 38.74646 | -4.80013 | 36983 ft | 390 kts | 230° |
| 2026-05-05 14:47 | 38.70771 | -4.84908 | 36986 ft | 390 kts | 230° |
| 2026-05-05 14:47 | 38.66920 | -4.89766 | 36990 ft | 390 kts | 230° |
| 2026-05-05 14:48 | 38.63043 | -4.94640 | 36995 ft | 390 kts | 230° |
| 2026-05-05 14:48 | 38.59154 | -4.99514 | 36985 ft | 390 kts | 230° |
| 2026-05-05 14:49 | 38.55296 | -5.04345 | 36987 ft | 390 kts | 230° |
| 2026-05-05 14:49 | 38.51344 | -5.09141 | 36954 ft | 394 kts | 224° |
| 2026-05-05 14:50 | 38.46494 | -5.12662 | 36969 ft | 404 kts | 213° |
| 2026-05-05 14:50 | 38.41466 | -5.15780 | 36976 ft | 404 kts | 213° |
| 2026-05-05 14:51 | 38.36398 | -5.18925 | 36982 ft | 405 kts | 213° |
| 2026-05-05 14:51 | 38.31338 | -5.22063 | 36984 ft | 404 kts | 213° |
| 2026-05-05 14:52 | 38.27126 | -5.24676 | 36987 ft | 405 kts | 213° |
| 2026-05-05 14:52 | 38.21238 | -5.28325 | 36989 ft | 405 kts | 213° |
| 2026-05-05 14:53 | 38.17019 | -5.30929 | 36989 ft | 405 kts | 213° |
| 2026-05-05 14:53 | 38.11948 | -5.34052 | 36997 ft | 405 kts | 213° |
| 2026-05-05 14:54 | 38.06863 | -5.37184 | 36989 ft | 405 kts | 213° |
| 2026-05-05 14:54 | 38.01800 | -5.40291 | 36958 ft | 406 kts | 212° |
| 2026-05-05 14:55 | 37.96703 | -5.43413 | 36965 ft | 407 kts | 212° |
| 2026-05-05 14:55 | 37.91601 | -5.46540 | 36976 ft | 407 kts | 213° |
| 2026-05-05 14:56 | 37.86501 | -5.49668 | 36982 ft | 407 kts | 213° |
| 2026-05-05 14:56 | 37.81412 | -5.52777 | 36962 ft | 408 kts | 212° |
| 2026-05-05 14:57 | 37.76294 | -5.55893 | 36971 ft | 407 kts | 212° |
| 2026-05-05 14:57 | 37.71182 | -5.59000 | 36983 ft | 407 kts | 212° |
| 2026-05-05 14:58 | 37.66099 | -5.62091 | 36990 ft | 407 kts | 212° |
| 2026-05-05 14:58 | 37.60986 | -5.65196 | 36995 ft | 407 kts | 212° |
| 2026-05-05 14:59 | 37.55871 | -5.68301 | 36971 ft | 407 kts | 212° |
| 2026-05-05 14:59 | 37.50804 | -5.71369 | 36994 ft | 407 kts | 212° |
| 2026-05-05 15:00 | 37.46553 | -5.73933 | 36996 ft | 407 kts | 211° |
| 2026-05-05 15:00 | 37.40929 | -5.78163 | 37002 ft | 397 kts | 225° |
| 2026-05-05 15:01 | 37.36748 | -5.82645 | 37007 ft | 397 kts | 225° |
| 2026-05-05 15:01 | 37.32524 | -5.87139 | 36982 ft | 397 kts | 224° |
| 2026-05-05 15:02 | 37.28294 | -5.91620 | 36997 ft | 397 kts | 224° |
| 2026-05-05 15:02 | 37.24100 | -5.96071 | 36986 ft | 397 kts | 225° |
| 2026-05-05 15:03 | 37.19873 | -6.00560 | 36990 ft | 397 kts | 225° |
| 2026-05-05 15:03 | 37.15668 | -6.05005 | 37003 ft | 397 kts | 224° |
| 2026-05-05 15:04 | 37.11434 | -6.09462 | 37004 ft | 397 kts | 224° |
| 2026-05-05 15:04 | 37.07199 | -6.13936 | 36970 ft | 398 kts | 224° |
| 2026-05-05 15:05 | 37.00867 | -6.20602 | 36998 ft | 398 kts | 224° |
| 2026-05-05 15:06 | 36.96623 | -6.25064 | 37017 ft | 398 kts | 224° |
| 2026-05-05 15:06 | 36.92383 | -6.29514 | 37024 ft | 398 kts | 224° |
| 2026-05-05 15:07 | 36.88163 | -6.33935 | 37025 ft | 398 kts | 224° |
| 2026-05-05 15:07 | 36.83904 | -6.38387 | 37036 ft | 398 kts | 224° |
| 2026-05-05 15:08 | 36.79671 | -6.42810 | 37017 ft | 398 kts | 223° |
| 2026-05-05 15:08 | 36.75422 | -6.47235 | 37027 ft | 398 kts | 223° |
| 2026-05-05 15:09 | 36.71160 | -6.51668 | 37033 ft | 398 kts | 223° |
| 2026-05-05 15:09 | 36.66920 | -6.56076 | 37032 ft | 399 kts | 223° |
| 2026-05-05 15:10 | 36.62649 | -6.60512 | 37043 ft | 399 kts | 223° |
| 2026-05-05 15:10 | 36.58373 | -6.64942 | 37046 ft | 399 kts | 223° |
| 2026-05-05 15:11 | 36.54121 | -6.69343 | 37039 ft | 399 kts | 223° |
| 2026-05-05 15:11 | 36.49836 | -6.73775 | 37045 ft | 399 kts | 223° |
| 2026-05-05 15:12 | 36.45584 | -6.78160 | 37053 ft | 399 kts | 223° |
| 2026-05-05 15:12 | 36.41302 | -6.82572 | 37061 ft | 399 kts | 223° |
| 2026-05-05 15:13 | 36.37025 | -6.86978 | 37059 ft | 400 kts | 223° |
| 2026-05-05 15:13 | 36.32753 | -6.91372 | 37068 ft | 400 kts | 223° |
| 2026-05-05 15:14 | 36.28454 | -6.95773 | 37037 ft | 400 kts | 223° |
| 2026-05-05 15:14 | 36.24182 | -7.00141 | 37052 ft | 400 kts | 223° |
| 2026-05-05 15:15 | 36.19883 | -7.04537 | 37058 ft | 401 kts | 223° |
| 2026-05-05 15:15 | 36.15627 | -7.08889 | 37064 ft | 401 kts | 223° |
| 2026-05-05 15:16 | 36.11316 | -7.13285 | 37073 ft | 401 kts | 223° |
| 2026-05-05 15:16 | 36.07033 | -7.17650 | 37077 ft | 401 kts | 222° |
| 2026-05-05 15:17 | 36.02726 | -7.22034 | 37064 ft | 401 kts | 222° |
| 2026-05-05 15:17 | 35.98412 | -7.26413 | 37064 ft | 401 kts | 222° |
| 2026-05-05 15:18 | 35.94117 | -7.30762 | 37070 ft | 402 kts | 222° |
| 2026-05-05 15:18 | 35.89792 | -7.35141 | 37074 ft | 402 kts | 222° |
| 2026-05-05 15:19 | 35.85455 | -7.39518 | 37077 ft | 402 kts | 222° |
| 2026-05-05 15:19 | 35.81138 | -7.43867 | 37080 ft | 402 kts | 222° |
| 2026-05-05 15:20 | 35.76784 | -7.48214 | 37084 ft | 402 kts | 222° |
| 2026-05-05 15:20 | 35.72429 | -7.52551 | 37089 ft | 402 kts | 222° |
| 2026-05-05 15:21 | 35.68074 | -7.56891 | 37087 ft | 402 kts | 222° |
| 2026-05-05 15:21 | 35.63744 | -7.61199 | 37091 ft | 402 kts | 221° |
| 2026-05-05 15:22 | 35.59382 | -7.65525 | 37093 ft | 403 kts | 221° |
| 2026-05-05 15:22 | 35.55016 | -7.69859 | 37091 ft | 403 kts | 221° |
| 2026-05-05 15:23 | 35.50673 | -7.74167 | 37087 ft | 403 kts | 221° |
| 2026-05-05 15:23 | 35.46296 | -7.78484 | 37070 ft | 404 kts | 221° |
| 2026-05-05 15:24 | 35.41409 | -7.81918 | 37071 ft | 412 kts | 202° |
| 2026-05-05 15:24 | 35.35662 | -7.82862 | 37078 ft | 425 kts | 181° |
| 2026-05-05 15:25 | 35.29789 | -7.82361 | 37076 ft | 426 kts | 181° |
| 2026-05-05 15:25 | 35.23864 | -7.81854 | 37057 ft | 427 kts | 181° |
| 2026-05-05 15:26 | 35.17933 | -7.81349 | 37067 ft | 427 kts | 181° |
| 2026-05-05 15:26 | 35.12029 | -7.80852 | 37076 ft | 427 kts | 181° |
| 2026-05-05 15:27 | 35.06084 | -7.80357 | 37077 ft | 427 kts | 181° |
| 2026-05-05 15:27 | 35.00142 | -7.79867 | 37088 ft | 427 kts | 181° |
| 2026-05-05 15:28 | 34.94227 | -7.79368 | 37066 ft | 428 kts | 181° |
| 2026-05-05 15:28 | 34.88273 | -7.78861 | 37066 ft | 429 kts | 181° |
| 2026-05-05 15:29 | 34.82315 | -7.78359 | 37079 ft | 429 kts | 181° |
| 2026-05-05 15:29 | 34.76357 | -7.77869 | 37085 ft | 429 kts | 181° |
| 2026-05-05 15:30 | 34.70385 | -7.77387 | 37067 ft | 430 kts | 181° |
| 2026-05-05 15:30 | 34.64418 | -7.76979 | 37071 ft | 430 kts | 182° |
| 2026-05-05 15:31 | 34.58431 | -7.76584 | 37074 ft | 431 kts | 182° |
| 2026-05-05 15:31 | 34.52476 | -7.76173 | 37079 ft | 431 kts | 182° |
| 2026-05-05 15:32 | 34.46469 | -7.75751 | 37066 ft | 431 kts | 182° |
| 2026-05-05 15:32 | 34.40514 | -7.75338 | 37075 ft | 431 kts | 182° |
| 2026-05-05 15:33 | 34.34504 | -7.74921 | 37079 ft | 432 kts | 182° |
| 2026-05-05 15:33 | 34.28499 | -7.74506 | 37083 ft | 432 kts | 182° |
| 2026-05-05 15:34 | 34.22496 | -7.74097 | 37068 ft | 432 kts | 182° |
| 2026-05-05 15:34 | 34.16495 | -7.73665 | 37077 ft | 432 kts | 182° |
| 2026-05-05 15:35 | 34.10529 | -7.73114 | 37083 ft | 432 kts | 181° |
| 2026-05-05 15:35 | 34.04514 | -7.72522 | 37083 ft | 432 kts | 181° |
| 2026-05-05 15:36 | 33.98516 | -7.71951 | 37084 ft | 432 kts | 181° |
| 2026-05-05 15:36 | 33.92555 | -7.71404 | 37070 ft | 431 kts | 183° |
| 2026-05-05 15:37 | 33.86573 | -7.70865 | 37081 ft | 430 kts | 183° |
| 2026-05-05 15:37 | 33.80635 | -7.70316 | 37083 ft | 430 kts | 183° |
| 2026-05-05 15:38 | 33.74679 | -7.69764 | 37076 ft | 429 kts | 183° |
| 2026-05-05 15:38 | 33.68716 | -7.69224 | 37058 ft | 428 kts | 184° |
| 2026-05-05 15:39 | 33.62778 | -7.68684 | 37075 ft | 427 kts | 184° |
| 2026-05-05 15:39 | 33.56856 | -7.68144 | 37079 ft | 425 kts | 186° |
| 2026-05-05 15:39 | 33.53941 | -7.68242 | 37075 ft | 413 kts | 195° |
| 2026-05-05 15:40 | 33.51162 | -7.68912 | 37077 ft | 403 kts | 204° |
| 2026-05-05 15:40 | 33.46969 | -7.71124 | 37077 ft | 392 kts | 215° |
| 2026-05-05 15:41 | 33.42211 | -7.74300 | 37048 ft | 391 kts | 216° |
| 2026-05-05 15:41 | 33.37458 | -7.77448 | 37072 ft | 389 kts | 216° |
| 2026-05-05 15:42 | 33.32716 | -7.80586 | 37076 ft | 388 kts | 216° |
| 2026-05-05 15:42 | 33.27992 | -7.83708 | 37075 ft | 388 kts | 216° |
| 2026-05-05 15:43 | 33.23303 | -7.86799 | 37069 ft | 387 kts | 216° |
| 2026-05-05 15:43 | 33.18595 | -7.89905 | 37067 ft | 386 kts | 216° |
| 2026-05-05 15:44 | 33.13886 | -7.93017 | 37066 ft | 386 kts | 216° |
| 2026-05-05 15:44 | 33.09179 | -7.96114 | 37062 ft | 386 kts | 216° |
| 2026-05-05 15:45 | 33.04471 | -7.99207 | 37033 ft | 386 kts | 216° |
| 2026-05-05 15:45 | 33.02106 | -8.00763 | 36159 ft | 392 kts | 216° |
| 2026-05-05 15:45 | 32.99707 | -8.02340 | 35386 ft | 393 kts | 216° |
| 2026-05-05 15:45 | 32.97314 | -8.03908 | 34665 ft | 392 kts | 215° |
| 2026-05-05 15:46 | 32.94898 | -8.05433 | 33922 ft | 396 kts | 211° |
| 2026-05-05 15:46 | 32.92288 | -8.06536 | 33322 ft | 400 kts | 202° |
| 2026-05-05 15:46 | 32.89532 | -8.07122 | 32706 ft | 402 kts | 197° |
| 2026-05-05 15:46 | 32.86815 | -8.07557 | 32155 ft | 396 kts | 198° |
| 2026-05-05 15:47 | 32.84095 | -8.07996 | 31581 ft | 388 kts | 198° |
| 2026-05-05 15:47 | 32.81462 | -8.08421 | 31044 ft | 379 kts | 198° |
| 2026-05-05 15:47 | 32.78858 | -8.08850 | 30496 ft | 375 kts | 198° |
| 2026-05-05 15:47 | 32.76286 | -8.09278 | 29958 ft | 372 kts | 198° |
| 2026-05-05 15:48 | 32.73734 | -8.09703 | 29390 ft | 368 kts | 198° |
| 2026-05-05 15:48 | 32.71209 | -8.10124 | 28921 ft | 363 kts | 198° |
| 2026-05-05 15:48 | 32.68727 | -8.10534 | 28459 ft | 358 kts | 198° |
| 2026-05-05 15:48 | 32.66318 | -8.10930 | 28013 ft | 354 kts | 197° |
| 2026-05-05 15:49 | 32.63918 | -8.11322 | 27567 ft | 350 kts | 197° |
| 2026-05-05 15:49 | 32.61511 | -8.11717 | 27104 ft | 346 kts | 197° |
| 2026-05-05 15:49 | 32.59134 | -8.12106 | 26704 ft | 342 kts | 197° |
| 2026-05-05 15:49 | 32.56784 | -8.12489 | 26286 ft | 339 kts | 197° |
| 2026-05-05 15:50 | 32.54453 | -8.12870 | 25884 ft | 335 kts | 197° |
| 2026-05-05 15:50 | 32.52153 | -8.13247 | 25494 ft | 333 kts | 196° |
| 2026-05-05 15:50 | 32.49859 | -8.13625 | 25103 ft | 332 kts | 196° |
| 2026-05-05 15:50 | 32.47574 | -8.14002 | 24723 ft | 332 kts | 196° |
| 2026-05-05 15:51 | 32.45317 | -8.14369 | 24339 ft | 331 kts | 195° |
| 2026-05-05 15:51 | 32.43035 | -8.14739 | 23946 ft | 331 kts | 195° |
| 2026-05-05 15:51 | 32.40754 | -8.15108 | 23562 ft | 331 kts | 195° |
| 2026-05-05 15:51 | 32.38471 | -8.15478 | 23105 ft | 330 kts | 195° |
| 2026-05-05 15:52 | 32.36201 | -8.15847 | 22701 ft | 328 kts | 195° |
| 2026-05-05 15:52 | 32.33940 | -8.16214 | 22294 ft | 326 kts | 196° |
| 2026-05-05 15:52 | 32.31696 | -8.16578 | 21902 ft | 324 kts | 196° |
| 2026-05-05 15:52 | 32.29468 | -8.16939 | 21507 ft | 322 kts | 196° |
| 2026-05-05 15:53 | 32.27257 | -8.17299 | 21114 ft | 320 kts | 196° |
| 2026-05-05 15:53 | 32.25049 | -8.17659 | 20711 ft | 319 kts | 195° |
| 2026-05-05 15:53 | 32.22858 | -8.18015 | 20307 ft | 317 kts | 195° |
| 2026-05-05 15:53 | 32.20675 | -8.18369 | 19916 ft | 316 kts | 195° |
| 2026-05-05 15:54 | 32.18500 | -8.18722 | 19519 ft | 315 kts | 195° |
| 2026-05-05 15:54 | 32.16363 | -8.19068 | 19134 ft | 313 kts | 195° |
| 2026-05-05 15:54 | 32.14210 | -8.19437 | 18754 ft | 310 kts | 199° |
| 2026-05-05 15:54 | 32.12163 | -8.20115 | 18371 ft | 302 kts | 207° |
| 2026-05-05 15:55 | 32.10281 | -8.21159 | 17976 ft | 296 kts | 216° |
| 2026-05-05 15:55 | 32.08510 | -8.22379 | 17606 ft | 293 kts | 216° |
| 2026-05-05 15:55 | 32.06748 | -8.23588 | 17239 ft | 291 kts | 216° |
| 2026-05-05 15:55 | 32.05005 | -8.24779 | 16895 ft | 288 kts | 216° |
| 2026-05-05 15:56 | 32.03276 | -8.25961 | 16554 ft | 287 kts | 216° |
| 2026-05-05 15:56 | 32.01557 | -8.27135 | 16204 ft | 286 kts | 216° |
| 2026-05-05 15:56 | 31.99835 | -8.28308 | 15867 ft | 285 kts | 216° |
| 2026-05-05 15:56 | 31.98126 | -8.29472 | 15528 ft | 284 kts | 216° |
| 2026-05-05 15:57 | 31.96419 | -8.30636 | 15191 ft | 283 kts | 216° |
| 2026-05-05 15:57 | 31.94719 | -8.31792 | 14852 ft | 282 kts | 216° |
| 2026-05-05 15:57 | 31.93021 | -8.32951 | 14511 ft | 281 kts | 216° |
| 2026-05-05 15:57 | 31.91350 | -8.34090 | 14174 ft | 281 kts | 216° |
| 2026-05-05 15:58 | 31.89659 | -8.35242 | 13830 ft | 280 kts | 216° |
| 2026-05-05 15:58 | 31.87972 | -8.36390 | 13460 ft | 280 kts | 215° |
| 2026-05-05 15:58 | 31.86287 | -8.37539 | 13106 ft | 278 kts | 215° |
| 2026-05-05 15:58 | 31.84617 | -8.38676 | 12749 ft | 277 kts | 215° |
| 2026-05-05 15:59 | 31.82902 | -8.39736 | 12393 ft | 279 kts | 209° |
| 2026-05-05 15:59 | 31.81126 | -8.40649 | 12033 ft | 279 kts | 208° |
| 2026-05-05 15:59 | 31.79353 | -8.41561 | 11656 ft | 278 kts | 208° |
| 2026-05-05 15:59 | 31.77582 | -8.42475 | 11305 ft | 277 kts | 208° |
| 2026-05-05 16:00 | 31.75822 | -8.43384 | 10949 ft | 276 kts | 208° |
| 2026-05-05 16:00 | 31.74063 | -8.44290 | 10583 ft | 276 kts | 208° |
| 2026-05-05 16:00 | 31.72303 | -8.45196 | 10239 ft | 275 kts | 207° |
| 2026-05-05 16:00 | 31.70543 | -8.46100 | 10146 ft | 277 kts | 207° |
| 2026-05-05 16:01 | 31.68773 | -8.47008 | 10039 ft | 278 kts | 207° |
| 2026-05-05 16:01 | 31.66994 | -8.47921 | 9711 ft | 282 kts | 207° |
| 2026-05-05 16:01 | 31.65179 | -8.48854 | 9258 ft | 283 kts | 206° |
| 2026-05-05 16:01 | 31.63264 | -8.49348 | 8889 ft | 287 kts | 179° |
| 2026-05-05 16:02 | 31.61398 | -8.48604 | 8439 ft | 292 kts | 147° |
| 2026-05-05 16:02 | 31.60098 | -8.46796 | 7769 ft | 294 kts | 114° |
| 2026-05-05 16:02 | 31.59785 | -8.44447 | 7104 ft | 293 kts | 86° |
| 2026-05-05 16:02 | 31.60112 | -8.42096 | 6439 ft | 290 kts | 77° |
| 2026-05-05 16:03 | 31.60546 | -8.39800 | 5842 ft | 286 kts | 77° |
| 2026-05-05 16:03 | 31.60975 | -8.37535 | 5320 ft | 284 kts | 76° |
| 2026-05-05 16:03 | 31.61399 | -8.35294 | 4993 ft | 279 kts | 76° |
| 2026-05-05 16:03 | 31.61676 | -8.33054 | 4558 ft | 279 kts | 83° |
| 2026-05-05 16:04 | 31.61769 | -8.30791 | 4218 ft | 274 kts | 88° |
| 2026-05-05 16:04 | 31.61788 | -8.28610 | 4073 ft | 260 kts | 88° |
| 2026-05-05 16:04 | 31.61792 | -8.26545 | 3966 ft | 246 kts | 88° |
| 2026-05-05 16:04 | 31.61803 | -8.24615 | 3867 ft | 234 kts | 87° |
| 2026-05-05 16:05 | 31.61825 | -8.22749 | 3783 ft | 223 kts | 87° |
| 2026-05-05 16:05 | 31.61858 | -8.20962 | 3684 ft | 214 kts | 88° |
| 2026-05-05 16:05 | 31.61897 | -8.19242 | 3600 ft | 210 kts | 86° |
| 2026-05-05 16:05 | 31.61901 | -8.17539 | 3482 ft | 210 kts | 91° |
| 2026-05-05 16:06 | 31.61767 | -8.15877 | 3265 ft | 198 kts | 95° |
| 2026-05-05 16:06 | 31.61625 | -8.14310 | 3004 ft | 189 kts | 94° |
| 2026-05-05 16:06 | 31.61490 | -8.12784 | 2745 ft | 185 kts | 95° |
| 2026-05-05 16:06 | 31.61361 | -8.11305 | 2526 ft | 181 kts | 95° |
| 2026-05-05 16:07 | 31.61235 | -8.09875 | 2319 ft | 172 kts | 94° |
| 2026-05-05 16:07 | 31.61113 | -8.08531 | 2094 ft | 163 kts | 96° |
| 2026-05-05 16:07 | 31.61018 | -8.07235 | 1878 ft | 157 kts | 96° |
| 2026-05-05 16:07 | 31.60887 | -8.05983 | 1703 ft | 153 kts | 95° |
| 2026-05-05 16:08 | 31.60787 | -8.04751 | 1551 ft | 149 kts | 93° |
| 2026-05-05 16:08 | 31.60694 | -8.03662 | 1541 ft | 114 kts | 96° |
| 2026-05-05 16:08 | 31.60630 | -8.02939 | 1542 ft | 64 kts | 96° |
| 2026-05-05 16:08 | 31.60597 | -8.02648 | 1549 ft | 11 kts | 122° |
| 2026-05-05 16:09 | 31.60544 | -8.02636 | 1549 ft | 6 kts | 187° |
| 2026-05-05 16:09 | 31.60502 | -8.02642 | 1549 ft | 5 kts | 186° |
| 2026-05-05 16:09 | 31.60485 | -8.02644 | 1549 ft | 0 kts | 186° |
| 2026-05-05 16:10 | 31.60480 | -8.02644 | 1549 ft | 3 kts | 185° |
| 2026-05-05 16:10 | 31.60449 | -8.02646 | 1549 ft | 7 kts | 176° |
| 2026-05-05 16:10 | 31.60425 | -8.02593 | 1549 ft | 9 kts | 96° |
| 2026-05-05 16:10 | 31.60422 | -8.02553 | 1549 ft | 1 kts | 96° |
| 2026-05-05 16:11 | 31.60420 | -8.02527 | 1549 ft | 6 kts | 96° |
| 2026-05-05 16:11 | 31.60397 | -8.02251 | 1549 ft | 12 kts | 97° |
| 2026-05-05 16:12 | 31.60349 | -8.02197 | 1549 ft | 10 kts | 179° |
| 2026-05-05 16:12 | 31.60227 | -8.02208 | 1549 ft | 8 kts | 184° |
| 2026-05-05 16:13 | 31.60124 | -8.02241 | 1549 ft | 3 kts | 262° |
| 2026-05-05 16:13 | 31.60125 | -8.02263 | 1549 ft | 3 kts | 276° |
| 2026-05-05 16:13 | 31.60128 | -8.02291 | 1549 ft | 3 kts | 276° |
| 2026-05-05 16:14 | 31.60130 | -8.02317 | 1549 ft | 0 kts | 276° |